Barra do Choca, Brazil
Current Conditions -  °F | °C
As of 12:25 AM on Thursday 18 Dec 2014 (Local Time) from SBQV Reporting Station
Moderate Rain Moderate Rain  
Wind Chill: 68°   Ceiling: 600
Heat Index: 68°   Visibility: 4mi
Dew Point: 68°   Wind: 6mph
Humidity: 100%   Direction: 80°E
Pressure: 29.97"   Gusts: NA
Location:  14.88°S, 40.58°W
Report Text: SBQV 180325Z 08005KT 6000 RA FEW004 BKN006 BKN070 20/20 Q1015
Loading
Personal Weather Stations






























Interactive Weather Map New forecast layout! Learn more

10-Day Weather Forecast

Advertisements
Track Severe Weather on mobile